Bellaire, Ohio
Current Conditions -  °F | °C
As of 3:53 AM on Wednesday 28 Jan 2015 (Local Time) from KHLG Reporting Station
Overcast Overcast  
Wind Chill: 14°   Ceiling: 1200
Heat Index: 14°   Visibility: 10mi
Dew Point: 10°   Wind: 3mph
Humidity: 84%   Direction: 260°W
Pressure: 30.21"   Gusts: NA
Location:  40.02°N, 80.74°W
Report Text: KHLG 280853Z AUTO 26003KT 10SM OVC012 M10/M12 A3021 RMK AO2 SLP252 T11001122 53019
Loading
Personal Weather Stations






























Interactive Weather Map New forecast layout! Learn more

10-Day Weather Forecast

Advertisements
Track Severe Weather on mobile